This is the latest recevied weather packets stored in our database for station/object DC4THF-13. If no packets are shown the sender has not sent any weather packets the latest 1 day(s).
| Time | Temp. | Humidity | Pressure | Rain* | Wind** | Luminosity | Snow |
|---|---|---|---|---|---|---|---|
| 1778002361 | 17.78° C | 66% | 1001.3 hPa | 0 mm | 0.89 m/s, 56° | - | - |
| 1778001758 | 17.78° C | 65% | 1001.2 hPa | 0 mm | 0.45 m/s, 336° | - | - |
| 1778001155 | 18.33° C | 64% | 1001.1 hPa | 0 mm | 1.34 m/s, 356° | - | - |
| 1778000552 | 18.89° C | 63% | 1001 hPa | 0 mm | 1.34 m/s, 340° | - | - |
| 1777999948 | 20° C | 60% | 1000.9 hPa | 0 mm | 1.79 m/s, 18° | - | - |
| 1777999345 | 20.56° C | 60% | 1001 hPa | 0 mm | 0.89 m/s, 351° | - | - |
| 1777998139 | 21.11° C | 58% | 1001 hPa | 0 mm | 1.79 m/s, 345° | - | - |
| 1777997536 | 21.11° C | 56% | 1001.2 hPa | 0 mm | 1.79 m/s, 315° | - | - |
| 1777996993 | 20.56° C | 56% | 1001.2 hPa | 0 mm | 1.79 m/s, 312° | - | - |
| 1777996390 | 20° C | 58% | 1001.4 hPa | 0 mm | 1.34 m/s, 333° | - | - |
| 1777995786 | 20° C | 59% | 1001.4 hPa | 0 mm | 1.34 m/s, 282° | - | - |
| 1777995183 | 19.44° C | 58% | 1001.4 hPa | 0 mm | 1.34 m/s, 320° | - | - |
| 1777994580 | 20° C | 58% | 1001.5 hPa | 0 mm | 1.79 m/s, 303° | - | - |
| 1777993977 | 20° C | 55% | 1001.5 hPa | 0 mm | 2.24 m/s, 316° | - | - |
| 1777993374 | 20.56° C | 53% | 1001.5 hPa | 0 mm | 0.45 m/s, 233° | - | - |
| 1777992770 | 20.56° C | 51% | 1001.4 hPa | 0 mm | 1.34 m/s, 230° | - | - |
| 1777992167 | 21.11° C | 50% | 1001.4 hPa | 0 mm | 1.34 m/s, 300° | - | - |
| 1777991564 | 22.22° C | 49% | 1001.4 hPa | 0 mm | 0.45 m/s, 260° | - | - |
| 1777990961 | 22.78° C | 45% | 1001.5 hPa | 0 mm | 1.34 m/s, 246° | - | - |
| 1777990357 | 22.22° C | 48% | 1001.6 hPa | 0 mm | 0.89 m/s, 12° | - | - |
| 1777989754 | 22.78° C | 48% | 1001.6 hPa | 0 mm | 0.89 m/s, 161° | - | - |
| 1777988548 | 21.67° C | 52% | 1001.8 hPa | 0 mm | 1.34 m/s, 274° | - | - |
| 1777987944 | 21.11° C | 55% | 1001.9 hPa | 0 mm | 1.34 m/s, 301° | - | - |
| 1777987341 | 21.11° C | 55% | 1001.9 hPa | 0 mm | 1.34 m/s, 314° | - | - |
| 1777986738 | 21.67° C | 51% | 1002.1 hPa | 0 mm | 1.79 m/s, 273° | - | - |
* Rain latest hour (hover to see other rain measurements)
** Current wind speed in m/s (hover to see current wind gust speed)